sensor_id;sensor_type;location;lat;lon;timestamp;temperature;humidity
9941;DHT22;5009;50.656;7.188;2023-05-20T04:02:18;10.80;99.90
9941;DHT22;5009;50.656;7.188;2023-05-20T04:04:43;10.80;99.90
9941;DHT22;5009;50.656;7.188;2023-05-20T04:07:09;10.80;99.90
9941;DHT22;5009;50.656;7.188;2023-05-20T04:09:35;10.90;99.90
9941;DHT22;5009;50.656;7.188;2023-05-20T04:12:01;10.80;99.90
9941;DHT22;5009;50.656;7.188;2023-05-20T04:14:27;10.80;99.90
9941;DHT22;5009;50.656;7.188;2023-05-20T04:16:53;10.90;99.90
9941;DHT22;5009;50.656;7.188;2023-05-20T04:19:18;10.80;99.90
9941;DHT22;5009;50.656;7.188;2023-05-20T04:21:44;10.90;99.90
9941;DHT22;5009;50.656;7.188;2023-05-20T04:24:10;10.90;99.90
9941;DHT22;5009;50.656;7.188;2023-05-20T04:26:35;10.90;99.90
9941;DHT22;5009;50.656;7.188;2023-05-20T04:29:01;10.90;99.90
9941;DHT22;5009;50.656;7.188;2023-05-20T04:31:29;10.90;99.90
9941;DHT22;5009;50.656;7.188;2023-05-20T04:33:55;10.90;99.90
9941;DHT22;5009;50.656;7.188;2023-05-20T04:36:21;10.90;99.90
9941;DHT22;5009;50.656;7.188;2023-05-20T04:38:47;10.90;99.90
9941;DHT22;5009;50.656;7.188;2023-05-20T04:41:13;11.00;99.90
9941;DHT22;5009;50.656;7.188;2023-05-20T04:43:40;10.90;99.90
9941;DHT22;5009;50.656;7.188;2023-05-20T04:46:07;10.90;99.90
9941;DHT22;5009;50.656;7.188;2023-05-20T04:48:33;11.00;99.90
9941;DHT22;5009;50.656;7.188;2023-05-20T04:50:58;11.10;99.90
9941;DHT22;5009;50.656;7.188;2023-05-20T04:53:24;11.10;99.90
9941;DHT22;5009;50.656;7.188;2023-05-20T04:55:53;11.10;99.90
9941;DHT22;5009;50.656;7.188;2023-05-20T04:58:19;11.10;99.90
9941;DHT22;5009;50.656;7.188;2023-05-20T05:00:48;11.20;99.90
9941;DHT22;5009;50.656;7.188;2023-05-20T05:03:14;11.20;99.90
9941;DHT22;5009;50.656;7.188;2023-05-20T05:05:40;11.30;99.90
9941;DHT22;5009;50.656;7.188;2023-05-20T05:08:07;11.30;99.90
9941;DHT22;5009;50.656;7.188;2023-05-20T05:10:34;11.40;99.90
9941;DHT22;5009;50.656;7.188;2023-05-20T05:13:00;11.40;99.90
9941;DHT22;5009;50.656;7.188;2023-05-20T05:15:26;11.50;99.90
9941;DHT22;5009;50.656;7.188;2023-05-20T05:17:52;11.50;99.90
9941;DHT22;5009;50.656;7.188;2023-05-20T05:20:17;11.60;99.90
9941;DHT22;5009;50.656;7.188;2023-05-20T05:22:44;11.70;99.90
9941;DHT22;5009;50.656;7.188;2023-05-20T05:25:10;11.80;99.90
9941;DHT22;5009;50.656;7.188;2023-05-20T05:27:36;11.90;99.90
9941;DHT22;5009;50.656;7.188;2023-05-20T05:30:03;11.90;99.90
9941;DHT22;5009;50.656;7.188;2023-05-20T05:32:29;12.00;99.90
9941;DHT22;5009;50.656;7.188;2023-05-20T05:34:55;12.10;99.90
9941;DHT22;5009;50.656;7.188;2023-05-20T05:37:20;12.20;99.90
9941;DHT22;5009;50.656;7.188;2023-05-20T05:39:46;12.30;99.90
9941;DHT22;5009;50.656;7.188;2023-05-20T05:42:12;12.30;99.90
9941;DHT22;5009;50.656;7.188;2023-05-20T05:44:37;12.40;99.90
9941;DHT22;5009;50.656;7.188;2023-05-20T05:47:04;12.70;99.90
9941;DHT22;5009;50.656;7.188;2023-05-20T05:49:31;13.10;99.90
9941;DHT22;5009;50.656;7.188;2023-05-20T05:51:56;13.50;99.90
9941;DHT22;5009;50.656;7.188;2023-05-20T05:54:22;13.80;99.90
9941;DHT22;5009;50.656;7.188;2023-05-20T05:56:50;14.00;99.90
9941;DHT22;5009;50.656;7.188;2023-05-20T05:59:15;14.40;97.90
9941;DHT22;5009;50.656;7.188;2023-05-20T06:01:41;14.90;96.40
9941;DHT22;5009;50.656;7.188;2023-05-20T06:04:06;15.20;95.50
9941;DHT22;5009;50.656;7.188;2023-05-20T06:06:32;15.40;94.70
9941;DHT22;5009;50.656;7.188;2023-05-20T06:08:58;15.30;94.20
9941;DHT22;5009;50.656;7.188;2023-05-20T06:11:23;15.20;94.10
9941;DHT22;5009;50.656;7.188;2023-05-20T06:13:49;15.10;94.10
9941;DHT22;5009;50.656;7.188;2023-05-20T06:16:15;15.10;94.40
9941;DHT22;5009;50.656;7.188;2023-05-20T06:18:41;15.00;94.50
9941;DHT22;5009;50.656;7.188;2023-05-20T06:21:07;15.20;95.00
9941;DHT22;5009;50.656;7.188;2023-05-20T06:23:32;16.00;94.40
9941;DHT22;5009;50.656;7.188;2023-05-20T06:25:59;16.80;92.70
9941;DHT22;5009;50.656;7.188;2023-05-20T06:28:25;17.70;91.10
9941;DHT22;5009;50.656;7.188;2023-05-20T06:30:53;18.40;89.30
9941;DHT22;5009;50.656;7.188;2023-05-20T06:33:19;19.10;87.40
9941;DHT22;5009;50.656;7.188;2023-05-20T06:35:46;19.40;85.10
9941;DHT22;5009;50.656;7.188;2023-05-20T06:38:11;19.50;83.10
9941;DHT22;5009;50.656;7.188;2023-05-20T06:40:37;19.30;83.00
9941;DHT22;5009;50.656;7.188;2023-05-20T06:43:03;19.00;83.00
9941;DHT22;5009;50.656;7.188;2023-05-20T06:45:28;18.90;83.20
9941;DHT22;5009;50.656;7.188;2023-05-20T06:47:54;18.60;84.00
9941;DHT22;5009;50.656;7.188;2023-05-20T06:50:20;18.40;84.50
9941;DHT22;5009;50.656;7.188;2023-05-20T06:52:45;18.10;84.80
9941;DHT22;5009;50.656;7.188;2023-05-20T06:55:11;17.90;85.40
9941;DHT22;5009;50.656;7.188;2023-05-20T06:57:37;17.90;86.00
9941;DHT22;5009;50.656;7.188;2023-05-20T07:00:03;17.70;86.30
9941;DHT22;5009;50.656;7.188;2023-05-20T07:02:31;18.00;87.20
9941;DHT22;5009;50.656;7.188;2023-05-20T07:04:57;18.30;86.80
9941;DHT22;5009;50.656;7.188;2023-05-20T07:07:23;18.30;85.80
9941;DHT22;5009;50.656;7.188;2023-05-20T07:09:48;18.30;86.10
9941;DHT22;5009;50.656;7.188;2023-05-20T07:12:14;18.20;86.00
9941;DHT22;5009;50.656;7.188;2023-05-20T07:14:39;18.20;86.00
9941;DHT22;5009;50.656;7.188;2023-05-20T07:17:05;18.20;85.70
9941;DHT22;5009;50.656;7.188;2023-05-20T07:19:30;18.70;85.70
9941;DHT22;5009;50.656;7.188;2023-05-20T07:21:56;19.00;84.70
9941;DHT22;5009;50.656;7.188;2023-05-20T07:24:21;19.50;83.90
9941;DHT22;5009;50.656;7.188;2023-05-20T07:26:47;20.20;82.70
9941;DHT22;5009;50.656;7.188;2023-05-20T07:29:13;20.70;80.50
9941;DHT22;5009;50.656;7.188;2023-05-20T07:31:38;21.10;79.90
9941;DHT22;5009;50.656;7.188;2023-05-20T07:34:04;21.30;78.50
9941;DHT22;5009;50.656;7.188;2023-05-20T07:36:30;21.60;78.00
9941;DHT22;5009;50.656;7.188;2023-05-20T07:38:55;21.70;77.30
9941;DHT22;5009;50.656;7.188;2023-05-20T07:41:21;21.50;76.10
9941;DHT22;5009;50.656;7.188;2023-05-20T07:43:47;21.20;76.10
9941;DHT22;5009;50.656;7.188;2023-05-20T07:46:12;20.80;76.60
9941;DHT22;5009;50.656;7.188;2023-05-20T07:48:38;20.40;77.70
9941;DHT22;5009;50.656;7.188;2023-05-20T07:51:03;20.20;78.80
9941;DHT22;5009;50.656;7.188;2023-05-20T07:53:29;20.00;78.80
9941;DHT22;5009;50.656;7.188;2023-05-20T07:55:54;20.00;79.70
9941;DHT22;5009;50.656;7.188;2023-05-20T07:58:21;20.20;79.40
9941;DHT22;5009;50.656;7.188;2023-05-20T08:00:46;20.50;79.80
9941;DHT22;5009;50.656;7.188;2023-05-20T08:03:13;20.50;79.40
9941;DHT22;5009;50.656;7.188;2023-05-20T08:05:40;20.70;80.00
9941;DHT22;5009;50.656;7.188;2023-05-20T08:08:06;20.80;79.50
9941;DHT22;5009;50.656;7.188;2023-05-20T08:10:32;20.90;79.40
9941;DHT22;5009;50.656;7.188;2023-05-20T08:12:57;21.10;79.70
9941;DHT22;5009;50.656;7.188;2023-05-20T08:15:23;21.10;78.80
9941;DHT22;5009;50.656;7.188;2023-05-20T08:17:48;21.20;78.80
9941;DHT22;5009;50.656;7.188;2023-05-20T08:20:14;21.40;78.80
9941;DHT22;5009;50.656;7.188;2023-05-20T08:22:39;21.40;78.10
9941;DHT22;5009;50.656;7.188;2023-05-20T08:25:08;21.60;77.90
9941;DHT22;5009;50.656;7.188;2023-05-20T08:27:35;21.80;77.70
9941;DHT22;5009;50.656;7.188;2023-05-20T08:30:03;21.80;77.10
9941;DHT22;5009;50.656;7.188;2023-05-20T08:32:28;22.00;77.30
9941;DHT22;5009;50.656;7.188;2023-05-20T08:34:54;22.00;76.50
9941;DHT22;5009;50.656;7.188;2023-05-20T08:37:19;22.10;76.90
9941;DHT22;5009;50.656;7.188;2023-05-20T08:39:45;22.00;76.90
9941;DHT22;5009;50.656;7.188;2023-05-20T08:42:12;22.20;76.30
9941;DHT22;5009;50.656;7.188;2023-05-20T08:44:39;22.00;75.90
9941;DHT22;5009;50.656;7.188;2023-05-20T08:47:06;22.20;76.10
9941;DHT22;5009;50.656;7.188;2023-05-20T08:49:32;21.80;75.70
9941;DHT22;5009;50.656;7.188;2023-05-20T08:51:59;21.70;76.90
9941;DHT22;5009;50.656;7.188;2023-05-20T08:57:08;21.60;76.60
9941;DHT22;5009;50.656;7.188;2023-05-20T08:59:34;21.50;77.30
9941;DHT22;5009;50.656;7.188;2023-05-20T09:02:01;21.40;76.80
9941;DHT22;5009;50.656;7.188;2023-05-20T09:04:26;21.30;77.30
9941;DHT22;5009;50.656;7.188;2023-05-20T09:06:52;21.50;78.20
9941;DHT22;5009;50.656;7.188;2023-05-20T09:09:19;21.80;78.50
9941;DHT22;5009;50.656;7.188;2023-05-20T09:11:45;22.00;77.80
9941;DHT22;5009;50.656;7.188;2023-05-20T09:14:10;21.90;76.70
9941;DHT22;5009;50.656;7.188;2023-05-20T09:16:38;21.80;76.80
9941;DHT22;5009;50.656;7.188;2023-05-20T09:19:05;22.00;76.90
9941;DHT22;5009;50.656;7.188;2023-05-20T09:21:31;22.00;76.40
9941;DHT22;5009;50.656;7.188;2023-05-20T09:24:00;21.60;76.70
9941;DHT22;5009;50.656;7.188;2023-05-20T09:26:27;21.40;76.50
9941;DHT22;5009;50.656;7.188;2023-05-20T09:28:55;21.50;76.50
9941;DHT22;5009;50.656;7.188;2023-05-20T09:31:24;21.20;76.30
9941;DHT22;5009;50.656;7.188;2023-05-20T09:33:50;21.20;76.30
9941;DHT22;5009;50.656;7.188;2023-05-20T09:36:17;21.10;76.20
9941;DHT22;5009;50.656;7.188;2023-05-20T09:38:44;21.00;77.30
9941;DHT22;5009;50.656;7.188;2023-05-20T09:41:12;20.90;76.80
9941;DHT22;5009;50.656;7.188;2023-05-20T09:43:39;21.10;77.10
9941;DHT22;5009;50.656;7.188;2023-05-20T09:46:06;21.00;77.10
9941;DHT22;5009;50.656;7.188;2023-05-20T09:48:34;21.00;76.80
9941;DHT22;5009;50.656;7.188;2023-05-20T09:51:04;21.00;77.70
9941;DHT22;5009;50.656;7.188;2023-05-20T09:53:31;21.10;76.70
9941;DHT22;5009;50.656;7.188;2023-05-20T09:55:56;21.10;76.60
9941;DHT22;5009;50.656;7.188;2023-05-20T09:58:23;20.90;76.80
9941;DHT22;5009;50.656;7.188;2023-05-20T10:00:49;20.90;77.80
9941;DHT22;5009;50.656;7.188;2023-05-20T10:03:17;21.20;78.50
9941;DHT22;5009;50.656;7.188;2023-05-20T10:11:34;21.20;76.90
9941;DHT22;5009;50.656;7.188;2023-05-20T10:17:00;20.70;79.20
9941;DHT22;5009;50.656;7.188;2023-05-20T10:19:31;21.10;79.10
9941;DHT22;5009;50.656;7.188;2023-05-20T10:22:04;21.10;77.90
9941;DHT22;5009;50.656;7.188;2023-05-20T10:24:40;21.30;77.20
9941;DHT22;5009;50.656;7.188;2023-05-20T10:27:13;21.40;78.60
9941;DHT22;5009;50.656;7.188;2023-05-20T10:29:54;21.30;77.90
9941;DHT22;5009;50.656;7.188;2023-05-20T10:32:28;21.20;78.30
9941;DHT22;5009;50.656;7.188;2023-05-20T10:35:19;21.00;77.60
9941;DHT22;5009;50.656;7.188;2023-05-20T10:37:45;20.90;80.30
9941;DHT22;5009;50.656;7.188;2023-05-20T10:40:13;20.90;78.90
9941;DHT22;5009;50.656;7.188;2023-05-20T10:42:40;21.10;79.30
9941;DHT22;5009;50.656;7.188;2023-05-20T10:45:07;21.00;79.70
9941;DHT22;5009;50.656;7.188;2023-05-20T10:47:33;21.00;79.70
9941;DHT22;5009;50.656;7.188;2023-05-20T10:49:59;21.00;79.80
9941;DHT22;5009;50.656;7.188;2023-05-20T10:52:26;20.80;80.00
9941;DHT22;5009;50.656;7.188;2023-05-20T10:54:56;20.70;80.90
9941;DHT22;5009;50.656;7.188;2023-05-20T10:57:24;20.80;80.80
9941;DHT22;5009;50.656;7.188;2023-05-20T10:59:50;20.60;80.50
9941;DHT22;5009;50.656;7.188;2023-05-20T11:02:17;20.60;81.30
9941;DHT22;5009;50.656;7.188;2023-05-20T11:04:43;20.40;80.90
9941;DHT22;5009;50.656;7.188;2023-05-20T11:07:09;20.30;81.00
9941;DHT22;5009;50.656;7.188;2023-05-20T11:09:35;20.20;81.50
9941;DHT22;5009;50.656;7.188;2023-05-20T11:12:01;20.40;81.10
9941;DHT22;5009;50.656;7.188;2023-05-20T11:14:27;20.40;81.10
9941;DHT22;5009;50.656;7.188;2023-05-20T11:16:58;20.60;81.60
9941;DHT22;5009;50.656;7.188;2023-05-20T11:19:25;20.80;81.30
9941;DHT22;5009;50.656;7.188;2023-05-20T11:21:51;20.70;80.50
9941;DHT22;5009;50.656;7.188;2023-05-20T11:24:24;20.50;80.80
9941;DHT22;5009;50.656;7.188;2023-05-20T11:26:54;20.80;82.10
9941;DHT22;5009;50.656;7.188;2023-05-20T11:29:21;20.50;81.80
9941;DHT22;5009;50.656;7.188;2023-05-20T11:31:50;20.60;80.90
9941;DHT22;5009;50.656;7.188;2023-05-20T11:34:21;20.60;81.70
9941;DHT22;5009;50.656;7.188;2023-05-20T11:36:48;20.50;81.10
9941;DHT22;5009;50.656;7.188;2023-05-20T11:39:15;20.20;82.20
9941;DHT22;5009;50.656;7.188;2023-05-20T11:41:43;20.40;81.50
9941;DHT22;5009;50.656;7.188;2023-05-20T11:44:10;20.50;81.50
9941;DHT22;5009;50.656;7.188;2023-05-20T11:46:41;20.70;82.10
9941;DHT22;5009;50.656;7.188;2023-05-20T11:49:07;20.50;81.90
9941;DHT22;5009;50.656;7.188;2023-05-20T11:51:33;20.40;81.40
9941;DHT22;5009;50.656;7.188;2023-05-20T11:54:03;20.40;81.30
9941;DHT22;5009;50.656;7.188;2023-05-20T11:56:32;20.40;81.40
9941;DHT22;5009;50.656;7.188;2023-05-20T11:59:01;20.60;81.80
9941;DHT22;5009;50.656;7.188;2023-05-20T12:01:32;20.60;81.30
9941;DHT22;5009;50.656;7.188;2023-05-20T12:04:08;20.80;80.90
9941;DHT22;5009;50.656;7.188;2023-05-20T12:06:35;20.80;81.50
9941;DHT22;5009;50.656;7.188;2023-05-20T12:09:05;21.00;81.10
9941;DHT22;5009;50.656;7.188;2023-05-20T12:11:33;21.00;81.70
9941;DHT22;5009;50.656;7.188;2023-05-20T12:14:00;20.80;82.10
9941;DHT22;5009;50.656;7.188;2023-05-20T12:16:25;20.90;82.00
9941;DHT22;5009;50.656;7.188;2023-05-20T12:18:51;20.50;80.70
9941;DHT22;5009;50.656;7.188;2023-05-20T12:21:16;20.70;81.50
9941;DHT22;5009;50.656;7.188;2023-05-20T12:23:42;20.80;81.20
9941;DHT22;5009;50.656;7.188;2023-05-20T12:26:07;21.00;82.20
9941;DHT22;5009;50.656;7.188;2023-05-20T12:28:33;21.00;81.10
9941;DHT22;5009;50.656;7.188;2023-05-20T12:30:58;21.10;81.30
9941;DHT22;5009;50.656;7.188;2023-05-20T12:33:24;21.00;80.30
9941;DHT22;5009;50.656;7.188;2023-05-20T12:35:50;21.00;80.50
9941;DHT22;5009;50.656;7.188;2023-05-20T12:38:15;20.90;79.80
9941;DHT22;5009;50.656;7.188;2023-05-20T12:40:41;20.80;80.20
9941;DHT22;5009;50.656;7.188;2023-05-20T12:43:06;20.80;81.10
9941;DHT22;5009;50.656;7.188;2023-05-20T12:45:32;21.00;81.20
9941;DHT22;5009;50.656;7.188;2023-05-20T12:47:58;21.10;81.00
9941;DHT22;5009;50.656;7.188;2023-05-20T12:50:24;21.30;81.00
9941;DHT22;5009;50.656;7.188;2023-05-20T12:52:50;21.50;80.50
9941;DHT22;5009;50.656;7.188;2023-05-20T12:55:15;21.50;80.90
9941;DHT22;5009;50.656;7.188;2023-05-20T12:57:45;21.30;79.80
9941;DHT22;5009;50.656;7.188;2023-05-20T13:00:12;21.30;79.70
9941;DHT22;5009;50.656;7.188;2023-05-20T13:02:38;21.30;80.40
9941;DHT22;5009;50.656;7.188;2023-05-20T13:05:05;21.30;79.80
9941;DHT22;5009;50.656;7.188;2023-05-20T13:07:31;21.20;80.60
9941;DHT22;5009;50.656;7.188;2023-05-20T13:09:57;21.20;80.70
9941;DHT22;5009;50.656;7.188;2023-05-20T13:12:23;21.00;80.90
9941;DHT22;5009;50.656;7.188;2023-05-20T13:14:49;20.90;80.70
9941;DHT22;5009;50.656;7.188;2023-05-20T13:17:14;20.80;80.80
9941;DHT22;5009;50.656;7.188;2023-05-20T13:19:40;20.90;80.80
9941;DHT22;5009;50.656;7.188;2023-05-20T13:22:06;20.80;81.10
9941;DHT22;5009;50.656;7.188;2023-05-20T13:24:33;20.90;80.90
9941;DHT22;5009;50.656;7.188;2023-05-20T13:26:59;20.90;80.70
9941;DHT22;5009;50.656;7.188;2023-05-20T13:29:26;20.80;80.50
9941;DHT22;5009;50.656;7.188;2023-05-20T13:31:51;20.80;80.50
9941;DHT22;5009;50.656;7.188;2023-05-20T13:34:17;20.80;80.70
9941;DHT22;5009;50.656;7.188;2023-05-20T13:36:43;21.00;81.20
9941;DHT22;5009;50.656;7.188;2023-05-20T13:39:08;21.00;81.20
9941;DHT22;5009;50.656;7.188;2023-05-20T13:41:34;21.00;80.60
9941;DHT22;5009;50.656;7.188;2023-05-20T13:43:59;20.80;80.40
9941;DHT22;5009;50.656;7.188;2023-05-20T13:46:25;20.90;80.80
9941;DHT22;5009;50.656;7.188;2023-05-20T13:48:51;21.00;80.40
9941;DHT22;5009;50.656;7.188;2023-05-20T13:51:16;21.00;80.40
9941;DHT22;5009;50.656;7.188;2023-05-20T13:53:42;21.00;80.20
9941;DHT22;5009;50.656;7.188;2023-05-20T13:56:07;21.00;80.10
9941;DHT22;5009;50.656;7.188;2023-05-20T13:58:34;20.90;79.50
9941;DHT22;5009;50.656;7.188;2023-05-20T14:01:00;20.70;80.30
9941;DHT22;5009;50.656;7.188;2023-05-20T14:03:26;20.50;80.80
9941;DHT22;5009;50.656;7.188;2023-05-20T14:05:51;20.50;80.40
9941;DHT22;5009;50.656;7.188;2023-05-20T14:08:17;20.40;80.80
9941;DHT22;5009;50.656;7.188;2023-05-20T14:10:43;20.40;79.80
9941;DHT22;5009;50.656;7.188;2023-05-20T14:13:08;20.30;80.00
9941;DHT22;5009;50.656;7.188;2023-05-20T14:15:35;20.40;80.50
9941;DHT22;5009;50.656;7.188;2023-05-20T14:18:01;20.20;80.20
9941;DHT22;5009;50.656;7.188;2023-05-20T14:20:26;20.30;80.70
9941;DHT22;5009;50.656;7.188;2023-05-20T14:22:52;20.30;81.10
9941;DHT22;5009;50.656;7.188;2023-05-20T14:25:18;20.30;80.50
9941;DHT22;5009;50.656;7.188;2023-05-20T14:27:43;20.00;81.40
9941;DHT22;5009;50.656;7.188;2023-05-20T14:30:09;20.10;82.00
9941;DHT22;5009;50.656;7.188;2023-05-20T14:32:35;20.20;81.30
9941;DHT22;5009;50.656;7.188;2023-05-20T14:35:01;20.20;80.70
9941;DHT22;5009;50.656;7.188;2023-05-20T14:37:26;20.00;80.50
9941;DHT22;5009;50.656;7.188;2023-05-20T14:39:53;19.90;80.30
9941;DHT22;5009;50.656;7.188;2023-05-20T14:42:18;19.90;80.40
9941;DHT22;5009;50.656;7.188;2023-05-20T14:44:44;19.90;80.20
9941;DHT22;5009;50.656;7.188;2023-05-20T14:47:10;20.00;81.10
9941;DHT22;5009;50.656;7.188;2023-05-20T14:49:35;19.90;81.40
9941;DHT22;5009;50.656;7.188;2023-05-20T14:52:04;19.60;81.70
9941;DHT22;5009;50.656;7.188;2023-05-20T14:54:31;19.70;81.40
9941;DHT22;5009;50.656;7.188;2023-05-20T14:56:57;19.70;81.80
9941;DHT22;5009;50.656;7.188;2023-05-20T14:59:23;19.50;81.70
9941;DHT22;5009;50.656;7.188;2023-05-20T15:01:48;19.50;82.50
9941;DHT22;5009;50.656;7.188;2023-05-20T15:04:14;19.50;82.50
9941;DHT22;5009;50.656;7.188;2023-05-20T15:06:39;19.50;81.80
9941;DHT22;5009;50.656;7.188;2023-05-20T15:09:06;19.60;82.40
9941;DHT22;5009;50.656;7.188;2023-05-20T15:11:31;19.60;82.30
9941;DHT22;5009;50.656;7.188;2023-05-20T15:13:57;19.50;81.90
9941;DHT22;5009;50.656;7.188;2023-05-20T15:16:23;19.50;82.40
9941;DHT22;5009;50.656;7.188;2023-05-20T15:18:50;19.60;82.00
9941;DHT22;5009;50.656;7.188;2023-05-20T15:21:15;19.70;81.30
9941;DHT22;5009;50.656;7.188;2023-05-20T15:23:41;19.90;81.00
9941;DHT22;5009;50.656;7.188;2023-05-20T15:26:07;19.90;81.10
9941;DHT22;5009;50.656;7.188;2023-05-20T15:28:32;19.90;81.00
9941;DHT22;5009;50.656;7.188;2023-05-20T15:30:58;19.90;80.40
9941;DHT22;5009;50.656;7.188;2023-05-20T15:33:23;20.00;80.60
9941;DHT22;5009;50.656;7.188;2023-05-20T15:35:49;20.00;80.40
9941;DHT22;5009;50.656;7.188;2023-05-20T15:38:15;20.00;80.50
9941;DHT22;5009;50.656;7.188;2023-05-20T15:40:41;20.00;80.10
9941;DHT22;5009;50.656;7.188;2023-05-20T15:43:08;19.60;80.80
9941;DHT22;5009;50.656;7.188;2023-05-20T15:45:33;19.60;81.00
9941;DHT22;5009;50.656;7.188;2023-05-20T15:47:59;19.50;80.60
9941;DHT22;5009;50.656;7.188;2023-05-20T15:50:24;19.60;81.20
9941;DHT22;5009;50.656;7.188;2023-05-20T15:52:53;19.70;80.80
9941;DHT22;5009;50.656;7.188;2023-05-20T15:55:19;19.50;81.40
9941;DHT22;5009;50.656;7.188;2023-05-20T15:57:48;19.50;80.50
9941;DHT22;5009;50.656;7.188;2023-05-20T16:00:15;19.70;81.50
9941;DHT22;5009;50.656;7.188;2023-05-20T16:02:42;19.70;81.30
9941;DHT22;5009;50.656;7.188;2023-05-20T16:05:08;19.70;80.70
9941;DHT22;5009;50.656;7.188;2023-05-20T16:07:33;19.70;80.20
9941;DHT22;5009;50.656;7.188;2023-05-20T16:09:59;19.80;80.60
9941;DHT22;5009;50.656;7.188;2023-05-20T16:12:24;19.70;80.60
9941;DHT22;5009;50.656;7.188;2023-05-20T16:14:50;19.70;80.50
9941;DHT22;5009;50.656;7.188;2023-05-20T16:17:16;19.70;80.20
9941;DHT22;5009;50.656;7.188;2023-05-20T16:19:45;19.50;80.50
9941;DHT22;5009;50.656;7.188;2023-05-20T16:22:11;19.60;81.00
9941;DHT22;5009;50.656;7.188;2023-05-20T16:24:38;19.70;80.50
9941;DHT22;5009;50.656;7.188;2023-05-20T16:27:04;19.60;81.00
9941;DHT22;5009;50.656;7.188;2023-05-20T16:29:30;19.60;81.40
9941;DHT22;5009;50.656;7.188;2023-05-20T16:31:55;19.60;81.40
9941;DHT22;5009;50.656;7.188;2023-05-20T16:34:21;19.40;81.50
9941;DHT22;5009;50.656;7.188;2023-05-20T16:36:47;19.50;81.70
9941;DHT22;5009;50.656;7.188;2023-05-20T16:39:13;19.60;82.10
9941;DHT22;5009;50.656;7.188;2023-05-20T16:41:39;19.60;81.50
9941;DHT22;5009;50.656;7.188;2023-05-20T16:44:05;19.70;82.00
9941;DHT22;5009;50.656;7.188;2023-05-20T16:46:31;19.70;81.70
9941;DHT22;5009;50.656;7.188;2023-05-20T16:48:56;19.80;81.90
9941;DHT22;5009;50.656;7.188;2023-05-20T16:51:22;19.90;82.20
9941;DHT22;5009;50.656;7.188;2023-05-20T16:53:48;19.80;81.30
9941;DHT22;5009;50.656;7.188;2023-05-20T16:56:13;19.70;81.20
9941;DHT22;5009;50.656;7.188;2023-05-20T16:58:39;19.60;81.90
9941;DHT22;5009;50.656;7.188;2023-05-20T17:01:05;19.70;82.00
9941;DHT22;5009;50.656;7.188;2023-05-20T17:03:31;19.70;82.20
9941;DHT22;5009;50.656;7.188;2023-05-20T17:05:57;19.70;82.10
9941;DHT22;5009;50.656;7.188;2023-05-20T17:08:22;19.80;82.40
9941;DHT22;5009;50.656;7.188;2023-05-20T17:10:48;19.90;82.70
9941;DHT22;5009;50.656;7.188;2023-05-20T17:13:14;19.90;82.30
9941;DHT22;5009;50.656;7.188;2023-05-20T17:15:40;19.90;82.20
9941;DHT22;5009;50.656;7.188;2023-05-20T17:18:05;19.90;82.30
9941;DHT22;5009;50.656;7.188;2023-05-20T17:20:31;19.90;82.40
9941;DHT22;5009;50.656;7.188;2023-05-20T17:22:57;19.80;83.00
9941;DHT22;5009;50.656;7.188;2023-05-20T17:25:23;19.70;83.20
9941;DHT22;5009;50.656;7.188;2023-05-20T17:27:48;19.70;82.90
9941;DHT22;5009;50.656;7.188;2023-05-20T17:30:15;19.70;83.00
9941;DHT22;5009;50.656;7.188;2023-05-20T17:32:41;19.40;83.30
9941;DHT22;5009;50.656;7.188;2023-05-20T17:35:07;19.40;84.00
9941;DHT22;5009;50.656;7.188;2023-05-20T17:37:33;19.30;84.30
9941;DHT22;5009;50.656;7.188;2023-05-20T17:39:58;19.30;84.50
9941;DHT22;5009;50.656;7.188;2023-05-20T17:42:24;19.20;84.70
9941;DHT22;5009;50.656;7.188;2023-05-20T17:44:50;19.10;85.00
9941;DHT22;5009;50.656;7.188;2023-05-20T17:47:16;19.10;85.70
9941;DHT22;5009;50.656;7.188;2023-05-20T17:49:41;19.00;85.70
9941;DHT22;5009;50.656;7.188;2023-05-20T17:52:07;19.00;86.00
9941;DHT22;5009;50.656;7.188;2023-05-20T17:54:32;19.00;86.50
9941;DHT22;5009;50.656;7.188;2023-05-20T17:56:58;19.10;86.80
9941;DHT22;5009;50.656;7.188;2023-05-20T17:59:24;19.10;86.80
9941;DHT22;5009;50.656;7.188;2023-05-20T18:01:49;19.00;86.90
9941;DHT22;5009;50.656;7.188;2023-05-20T18:04:15;19.00;87.30
9941;DHT22;5009;50.656;7.188;2023-05-20T18:06:41;19.00;87.60
9941;DHT22;5009;50.656;7.188;2023-05-20T18:09:07;19.00;88.20
9941;DHT22;5009;50.656;7.188;2023-05-20T18:11:33;19.00;88.30
9941;DHT22;5009;50.656;7.188;2023-05-20T18:14:00;19.00;88.40
9941;DHT22;5009;50.656;7.188;2023-05-20T18:16:27;19.10;89.00
9941;DHT22;5009;50.656;7.188;2023-05-20T18:18:53;19.00;88.80
9941;DHT22;5009;50.656;7.188;2023-05-20T18:21:23;19.00;88.80
9941;DHT22;5009;50.656;7.188;2023-05-20T18:23:49;19.00;88.60
9941;DHT22;5009;50.656;7.188;2023-05-20T18:26:15;19.00;88.40
9941;DHT22;5009;50.656;7.188;2023-05-20T18:28:41;19.00;88.70
9941;DHT22;5009;50.656;7.188;2023-05-20T18:31:07;18.90;88.80
9941;DHT22;5009;50.656;7.188;2023-05-20T18:33:33;18.90;89.50
9941;DHT22;5009;50.656;7.188;2023-05-20T18:35:59;18.90;89.80
9941;DHT22;5009;50.656;7.188;2023-05-20T18:38:25;18.90;89.60
9941;DHT22;5009;50.656;7.188;2023-05-20T18:40:50;18.90;89.80
9941;DHT22;5009;50.656;7.188;2023-05-20T18:43:16;18.80;90.00
9941;DHT22;5009;50.656;7.188;2023-05-20T18:45:42;18.80;90.10
9941;DHT22;5009;50.656;7.188;2023-05-20T18:48:07;18.80;90.30
9941;DHT22;5009;50.656;7.188;2023-05-20T18:50:33;18.80;90.30
9941;DHT22;5009;50.656;7.188;2023-05-20T18:52:59;18.70;90.30
9941;DHT22;5009;50.656;7.188;2023-05-20T18:55:24;18.60;90.50
9941;DHT22;5009;50.656;7.188;2023-05-20T18:57:50;18.60;90.70
9941;DHT22;5009;50.656;7.188;2023-05-20T19:00:16;18.60;90.90
9941;DHT22;5009;50.656;7.188;2023-05-20T19:02:42;18.50;91.00
9941;DHT22;5009;50.656;7.188;2023-05-20T19:05:09;18.40;91.10
9941;DHT22;5009;50.656;7.188;2023-05-20T19:07:36;18.40;91.50
9941;DHT22;5009;50.656;7.188;2023-05-20T19:10:02;18.30;91.70
9941;DHT22;5009;50.656;7.188;2023-05-20T19:12:28;18.20;91.90
9941;DHT22;5009;50.656;7.188;2023-05-20T19:14:54;18.20;92.00
9941;DHT22;5009;50.656;7.188;2023-05-20T19:17:19;18.30;92.20
9941;DHT22;5009;50.656;7.188;2023-05-20T19:19:45;18.20;92.20
9941;DHT22;5009;50.656;7.188;2023-05-20T19:22:12;18.30;92.20
9941;DHT22;5009;50.656;7.188;2023-05-20T19:24:38;18.20;92.40
9941;DHT22;5009;50.656;7.188;2023-05-20T19:27:03;18.20;92.50
9941;DHT22;5009;50.656;7.188;2023-05-20T19:29:29;18.10;92.60
9941;DHT22;5009;50.656;7.188;2023-05-20T19:31:55;18.10;92.80
9941;DHT22;5009;50.656;7.188;2023-05-20T19:34:21;18.10;92.90
9941;DHT22;5009;50.656;7.188;2023-05-20T19:36:47;18.00;92.90
9941;DHT22;5009;50.656;7.188;2023-05-20T19:39:12;18.00;92.90
9941;DHT22;5009;50.656;7.188;2023-05-20T19:41:38;18.00;93.10
9941;DHT22;5009;50.656;7.188;2023-05-20T19:44:05;18.00;93.20
9941;DHT22;5009;50.656;7.188;2023-05-20T19:46:31;18.00;93.20
9941;DHT22;5009;50.656;7.188;2023-05-20T19:48:57;18.00;93.10
9941;DHT22;5009;50.656;7.188;2023-05-20T19:51:23;17.90;93.20
9941;DHT22;5009;50.656;7.188;2023-05-20T19:53:48;17.90;93.30
9941;DHT22;5009;50.656;7.188;2023-05-20T19:56:14;17.80;93.40
9941;DHT22;5009;50.656;7.188;2023-05-20T19:58:46;17.70;93.50
9941;DHT22;5009;50.656;7.188;2023-05-20T20:01:13;17.70;93.60
9941;DHT22;5009;50.656;7.188;2023-05-20T20:03:42;17.70;94.00
9941;DHT22;5009;50.656;7.188;2023-05-20T20:06:09;17.70;94.10
9941;DHT22;5009;50.656;7.188;2023-05-20T20:08:35;17.70;94.00